createdAt,value
2022-09-26T00:00:02.134Z,10.70
2022-09-26T00:01:02.219Z,10.50
2022-09-26T00:02:02.184Z,10.40
2022-09-26T00:03:02.133Z,10.50
2022-09-26T00:04:02.136Z,10.40
2022-09-26T00:05:02.133Z,10.00
2022-09-26T00:06:02.138Z,10.20
2022-09-26T00:07:02.132Z,10.20
2022-09-26T00:08:02.137Z,10.00
2022-09-26T00:09:02.136Z,10.70
2022-09-26T00:10:02.138Z,10.50
2022-09-26T00:11:02.151Z,10.00
2022-09-26T00:12:02.132Z,10.50
2022-09-26T00:13:02.133Z,10.40
2022-09-26T00:14:02.135Z,10.00
2022-09-26T00:15:02.134Z,9.70
2022-09-26T00:16:02.137Z,9.90
2022-09-26T00:17:02.272Z,10.10
2022-09-26T00:18:02.137Z,10.10
2022-09-26T00:19:02.134Z,10.70
2022-09-26T00:20:02.133Z,10.50
2022-09-26T00:21:02.131Z,9.90
2022-09-26T00:22:02.137Z,10.60
2022-09-26T00:23:02.138Z,10.60
2022-09-26T00:24:02.141Z,12.00
2022-09-26T00:25:02.133Z,10.50
2022-09-26T00:26:02.140Z,10.40
2022-09-26T00:27:02.204Z,10.30
2022-09-26T00:28:02.137Z,10.40
2022-09-26T00:29:02.131Z,10.50
2022-09-26T00:30:02.133Z,10.60
2022-09-26T00:31:02.255Z,10.20
2022-09-26T00:32:02.133Z,10.40
2022-09-26T00:33:02.137Z,10.20
2022-09-26T00:34:02.134Z,10.10
2022-09-26T00:35:02.131Z,10.00
2022-09-26T00:36:02.151Z,10.10
2022-09-26T00:37:02.135Z,9.70
2022-09-26T00:38:02.140Z,9.50
2022-09-26T00:39:02.136Z,9.90
2022-09-26T00:40:02.135Z,10.30
2022-09-26T00:41:02.244Z,10.30
2022-09-26T00:42:02.133Z,10.20
2022-09-26T00:43:02.150Z,10.00
2022-09-26T00:44:02.132Z,10.10
2022-09-26T00:45:02.134Z,10.30
2022-09-26T00:46:02.227Z,10.10
2022-09-26T00:47:02.131Z,10.20
2022-09-26T00:48:02.133Z,10.00
2022-09-26T00:49:02.132Z,10.10
2022-09-26T00:50:02.147Z,10.20
2022-09-26T00:51:02.131Z,10.50
2022-09-26T00:52:02.135Z,10.20
2022-09-26T00:53:02.130Z,10.30
2022-09-26T00:54:02.130Z,10.50
2022-09-26T00:55:02.131Z,10.50
2022-09-26T00:56:02.133Z,10.60
2022-09-26T00:57:02.132Z,10.40
2022-09-26T00:58:02.133Z,10.30
2022-09-26T00:59:02.155Z,10.40
2022-09-26T01:00:02.146Z,10.40
2022-09-26T01:01:02.353Z,10.10
2022-09-26T01:02:02.392Z,10.50
2022-09-26T01:03:02.129Z,10.40
2022-09-26T01:04:02.129Z,10.50
2022-09-26T01:05:02.132Z,10.80
2022-09-26T01:06:02.139Z,10.10
2022-09-26T01:07:02.131Z,10.70
2022-09-26T01:08:02.136Z,10.10
2022-09-26T01:09:02.127Z,10.40
2022-09-26T01:10:02.134Z,10.10
2022-09-26T01:11:02.135Z,10.30
2022-09-26T01:12:02.130Z,9.70
2022-09-26T01:13:02.131Z,9.90
2022-09-26T01:14:02.135Z,10.20
2022-09-26T01:15:02.232Z,10.30
2022-09-26T01:16:02.140Z,9.70
2022-09-26T01:17:02.203Z,10.20
2022-09-26T01:18:02.128Z,10.30
2022-09-26T01:19:02.129Z,10.40
2022-09-26T01:20:02.133Z,10.40
2022-09-26T01:21:02.131Z,10.20
2022-09-26T01:22:02.131Z,10.30
2022-09-26T01:23:02.131Z,10.20
2022-09-26T01:24:02.129Z,10.40
2022-09-26T01:25:02.132Z,10.60
2022-09-26T01:26:02.129Z,10.40
2022-09-26T01:27:02.128Z,10.40
2022-09-26T01:28:02.126Z,10.60
2022-09-26T01:29:02.140Z,10.40
2022-09-26T01:30:02.146Z,10.50
2022-09-26T01:31:02.230Z,10.30
2022-09-26T01:32:02.128Z,10.40
2022-09-26T01:33:02.126Z,10.60
2022-09-26T01:34:02.132Z,10.20
2022-09-26T01:35:02.127Z,10.40
2022-09-26T01:36:02.133Z,10.50
2022-09-26T01:37:02.128Z,10.70
2022-09-26T01:38:02.129Z,10.60
2022-09-26T01:39:02.125Z,10.50
2022-09-26T01:40:02.130Z,10.50
2022-09-26T01:41:02.131Z,10.60
2022-09-26T01:42:02.125Z,10.50
2022-09-26T01:43:02.128Z,10.30
2022-09-26T01:44:02.126Z,10.20
2022-09-26T01:45:02.135Z,10.40
2022-09-26T01:46:02.284Z,10.40
2022-09-26T01:47:02.147Z,10.00
2022-09-26T01:48:02.129Z,10.40
2022-09-26T01:49:02.129Z,10.10
2022-09-26T01:50:02.131Z,10.10
2022-09-26T01:51:02.129Z,10.20
2022-09-26T01:52:02.127Z,10.40
2022-09-26T01:53:02.125Z,10.10
2022-09-26T01:54:02.125Z,9.70
2022-09-26T01:55:02.120Z,9.90
2022-09-26T01:56:02.124Z,10.40
2022-09-26T01:57:02.125Z,10.30
2022-09-26T01:58:02.128Z,10.50
2022-09-26T01:59:02.123Z,10.50
2022-09-26T02:00:02.133Z,10.40
2022-09-26T02:01:02.213Z,10.80
2022-09-26T02:02:02.185Z,10.70
2022-09-26T02:03:02.144Z,10.40
2022-09-26T02:04:02.124Z,10.40
2022-09-26T02:05:02.124Z,10.20
2022-09-26T02:06:02.126Z,10.60
2022-09-26T02:07:02.139Z,10.40
2022-09-26T02:08:02.122Z,10.60
2022-09-26T02:09:02.124Z,10.30
2022-09-26T02:10:02.128Z,10.40
2022-09-26T02:11:02.125Z,10.60
2022-09-26T02:12:02.121Z,10.50
2022-09-26T02:13:02.125Z,10.80
2022-09-26T02:14:02.126Z,10.30
2022-09-26T02:15:02.124Z,9.90
2022-09-26T02:16:02.287Z,10.10
2022-09-26T02:17:02.217Z,10.20
2022-09-26T02:18:02.125Z,10.30
2022-09-26T02:19:02.138Z,10.80
2022-09-26T02:20:02.121Z,10.30
2022-09-26T02:21:02.124Z,9.70
2022-09-26T02:22:02.134Z,10.70
2022-09-26T02:23:02.122Z,10.20
2022-09-26T02:24:02.122Z,10.20
2022-09-26T02:25:02.120Z,10.50
2022-09-26T02:26:02.120Z,10.00
2022-09-26T02:27:02.170Z,10.10
2022-09-26T02:28:02.118Z,10.20
2022-09-26T02:29:02.119Z,9.80
2022-09-26T02:30:02.128Z,10.50
2022-09-26T02:31:02.117Z,10.30
2022-09-26T02:32:02.171Z,10.20
2022-09-26T02:33:02.117Z,10.40
2022-09-26T02:34:02.121Z,10.50
2022-09-26T02:35:02.135Z,10.30
2022-09-26T02:36:02.117Z,10.00
2022-09-26T02:37:02.115Z,10.30
2022-09-26T02:38:02.126Z,10.10
2022-09-26T02:39:02.118Z,9.50
2022-09-26T02:40:02.120Z,9.90
2022-09-26T02:41:02.118Z,9.80
2022-09-26T02:42:02.118Z,10.10
2022-09-26T02:43:02.128Z,10.10
2022-09-26T02:44:02.119Z,9.30
2022-09-26T02:45:02.121Z,9.60
2022-09-26T02:46:02.278Z,10.00
2022-09-26T02:47:02.117Z,9.40
2022-09-26T02:48:02.115Z,10.00
2022-09-26T02:49:02.121Z,9.90
2022-09-26T02:50:02.115Z,10.10
2022-09-26T02:51:02.135Z,10.10
2022-09-26T02:52:02.116Z,9.60
2022-09-26T02:53:02.117Z,10.00
2022-09-26T02:54:02.115Z,10.00
2022-09-26T02:55:02.122Z,10.20
2022-09-26T02:56:02.115Z,10.00
2022-09-26T02:57:02.117Z,10.10
2022-09-26T02:58:02.115Z,9.90
2022-09-26T02:59:02.114Z,9.60
2022-09-26T03:00:02.115Z,9.50
2022-09-26T03:01:02.213Z,8.90
2022-09-26T03:02:02.120Z,9.80
2022-09-26T03:03:02.109Z,9.40
2022-09-26T03:04:02.118Z,10.00
2022-09-26T03:05:02.188Z,9.60
2022-09-26T03:06:02.114Z,9.90
2022-09-26T03:07:02.146Z,10.10
2022-09-26T03:08:02.110Z,10.40
2022-09-26T03:09:02.122Z,10.30
2022-09-26T03:10:02.119Z,10.40
2022-09-26T03:11:02.109Z,10.50
2022-09-26T03:12:02.119Z,10.20
2022-09-26T03:13:02.108Z,10.10
2022-09-26T03:14:02.118Z,10.00
2022-09-26T03:15:02.111Z,10.20
2022-09-26T03:16:02.164Z,10.00
2022-09-26T03:17:02.105Z,10.30
2022-09-26T03:18:02.108Z,10.00
2022-09-26T03:19:02.108Z,10.00
2022-09-26T03:20:02.105Z,10.30
2022-09-26T03:21:02.114Z,10.50
2022-09-26T03:22:02.119Z,10.10
2022-09-26T03:23:02.129Z,10.30
2022-09-26T03:24:02.115Z,10.40
2022-09-26T03:25:02.108Z,10.30
2022-09-26T03:26:02.122Z,10.70
2022-09-26T03:27:02.159Z,10.20
2022-09-26T03:28:02.115Z,10.20
2022-09-26T03:29:02.110Z,10.80
2022-09-26T03:30:02.111Z,9.80
2022-09-26T03:31:02.104Z,10.10
2022-09-26T03:32:02.262Z,10.10
2022-09-26T03:33:02.105Z,10.00
2022-09-26T03:34:02.139Z,10.40
2022-09-26T03:35:02.113Z,9.80
2022-09-26T03:36:02.106Z,10.20
2022-09-26T03:37:02.109Z,10.50
2022-09-26T03:38:02.108Z,10.40
2022-09-26T03:39:02.129Z,10.20
2022-09-26T03:40:02.113Z,9.40
2022-09-26T03:41:02.339Z,9.10
2022-09-26T03:42:02.104Z,9.20
2022-09-26T03:43:02.112Z,9.50
2022-09-26T03:44:02.102Z,9.60
2022-09-26T03:45:02.111Z,9.30
2022-09-26T03:46:02.207Z,9.60
2022-09-26T03:47:02.107Z,9.90
2022-09-26T03:48:02.125Z,9.40
2022-09-26T03:49:02.105Z,9.30
2022-09-26T03:50:02.113Z,9.50
2022-09-26T03:51:02.100Z,9.60
2022-09-26T03:52:02.105Z,9.50
2022-09-26T03:53:02.104Z,9.10
2022-09-26T03:54:02.103Z,9.40
2022-09-26T03:55:02.125Z,9.30
2022-09-26T03:56:02.103Z,9.50
2022-09-26T03:57:02.109Z,8.90
2022-09-26T03:58:02.106Z,9.30
2022-09-26T03:59:02.101Z,9.40
2022-09-26T04:00:02.141Z,9.60
2022-09-26T04:01:02.201Z,9.10
2022-09-26T04:02:02.229Z,9.60
2022-09-26T04:03:02.115Z,9.40
2022-09-26T04:04:02.115Z,9.70
2022-09-26T04:05:02.102Z,9.50
2022-09-26T04:06:02.098Z,9.70
2022-09-26T04:07:02.113Z,10.10
2022-09-26T04:08:02.102Z,9.90
2022-09-26T04:09:02.107Z,10.00
2022-09-26T04:10:02.112Z,9.80
2022-09-26T04:11:02.117Z,8.60
2022-09-26T04:12:02.110Z,9.10
2022-09-26T04:13:02.106Z,9.20
2022-09-26T04:14:02.106Z,9.30
2022-09-26T04:15:02.114Z,9.70
2022-09-26T04:16:02.203Z,9.20
2022-09-26T04:17:02.118Z,8.90
2022-09-26T04:18:02.119Z,9.00
2022-09-26T04:19:02.109Z,8.50
2022-09-26T04:20:02.114Z,9.20
2022-09-26T04:21:03.997Z,8.50
2022-09-26T04:22:02.092Z,9.10
2022-09-26T04:23:02.106Z,8.80
2022-09-26T04:24:02.116Z,8.90
2022-09-26T04:25:02.101Z,8.90
2022-09-26T04:26:02.092Z,9.00
2022-09-26T04:27:02.142Z,9.30
2022-09-26T04:28:02.093Z,9.20
2022-09-26T04:29:02.092Z,9.40
2022-09-26T04:30:02.095Z,9.00
2022-09-26T04:31:02.091Z,9.70
2022-09-26T04:32:02.173Z,9.40
2022-09-26T04:33:02.091Z,9.30
2022-09-26T04:34:02.087Z,9.80
2022-09-26T04:35:02.096Z,9.20
2022-09-26T04:36:02.094Z,9.40
2022-09-26T04:37:02.088Z,8.90
2022-09-26T04:38:02.092Z,8.80
2022-09-26T04:39:02.092Z,9.00
2022-09-26T04:40:02.087Z,9.40
2022-09-26T04:41:02.231Z,9.90
2022-09-26T04:42:02.093Z,9.40
2022-09-26T04:43:02.210Z,9.40
2022-09-26T04:44:02.086Z,9.00
2022-09-26T04:45:02.087Z,9.10
2022-09-26T04:46:02.134Z,9.70
2022-09-26T04:47:02.088Z,9.90
2022-09-26T04:48:02.086Z,9.60
2022-09-26T04:49:02.089Z,9.50
2022-09-26T04:50:02.086Z,9.60
2022-09-26T04:51:02.085Z,9.50
2022-09-26T04:52:02.083Z,10.10
2022-09-26T04:53:02.085Z,9.90
2022-09-26T04:54:02.088Z,8.90
2022-09-26T04:55:02.084Z,10.50
2022-09-26T04:56:02.085Z,9.90
2022-09-26T04:57:02.084Z,9.10
2022-09-26T04:58:02.085Z,9.60
2022-09-26T04:59:02.197Z,9.30
2022-09-26T05:00:02.085Z,9.50
2022-09-26T05:01:02.169Z,9.80
2022-09-26T05:02:02.153Z,10.50
2022-09-26T05:03:02.084Z,9.80
2022-09-26T05:04:02.080Z,9.60
2022-09-26T05:05:02.082Z,9.60
2022-09-26T05:06:02.080Z,9.20
2022-09-26T05:07:02.083Z,9.80
2022-09-26T05:08:02.086Z,10.10
2022-09-26T05:09:02.083Z,9.80
2022-09-26T05:10:02.079Z,9.30
2022-09-26T05:11:02.080Z,9.70
2022-09-26T05:12:02.084Z,9.60
2022-09-26T05:13:02.096Z,9.70
2022-09-26T05:14:02.080Z,9.80
2022-09-26T05:15:02.101Z,9.40
2022-09-26T05:16:02.123Z,9.60
2022-09-26T05:17:02.076Z,9.30
2022-09-26T05:18:02.072Z,9.60
2022-09-26T05:19:02.075Z,9.40
2022-09-26T05:20:02.076Z,9.30
2022-09-26T05:21:02.076Z,9.40
2022-09-26T05:22:02.076Z,9.50
2022-09-26T05:23:02.077Z,9.60
2022-09-26T05:24:02.073Z,9.60
2022-09-26T05:25:02.076Z,9.40
2022-09-26T05:26:02.078Z,9.30
2022-09-26T05:27:02.076Z,9.70
2022-09-26T05:28:02.135Z,9.40
2022-09-26T05:29:07.712Z,9.20
2022-09-26T05:30:02.079Z,9.60
2022-09-26T05:31:02.095Z,9.20
2022-09-26T05:32:02.149Z,8.80
2022-09-26T05:33:02.074Z,9.40
2022-09-26T05:34:02.071Z,9.20
2022-09-26T05:35:02.068Z,9.10
2022-09-26T05:36:02.084Z,10.20
2022-09-26T05:37:02.069Z,9.30
2022-09-26T05:38:02.075Z,9.20
2022-09-26T05:39:02.069Z,9.40
2022-09-26T05:40:02.069Z,9.90
2022-09-26T05:41:02.169Z,9.50
2022-09-26T05:42:02.068Z,9.40
2022-09-26T05:43:02.069Z,9.40
2022-09-26T05:44:02.067Z,9.20
2022-09-26T05:45:02.073Z,8.80
2022-09-26T05:46:02.075Z,9.60
2022-09-26T05:47:02.283Z,9.60
2022-09-26T05:48:02.068Z,9.10
2022-09-26T05:49:02.065Z,9.50
2022-09-26T05:50:02.121Z,9.40
2022-09-26T05:51:02.066Z,9.10
2022-09-26T05:52:02.065Z,9.40
2022-09-26T05:53:02.066Z,9.20
2022-09-26T05:54:02.066Z,9.40
2022-09-26T05:55:02.066Z,9.30
2022-09-26T05:56:02.066Z,9.20
2022-09-26T05:57:02.084Z,9.20
2022-09-26T05:58:02.062Z,9.40
2022-09-26T05:59:02.063Z,9.40
2022-09-26T06:00:02.062Z,9.20
2022-09-26T06:01:02.155Z,8.80
2022-09-26T06:02:02.164Z,8.70
2022-09-26T06:03:02.086Z,17.40
2022-09-26T06:04:02.060Z,8.80
2022-09-26T06:05:02.059Z,9.00
2022-09-26T06:06:02.065Z,9.20
2022-09-26T06:07:02.060Z,8.90
2022-09-26T06:08:02.057Z,9.00
2022-09-26T06:09:02.062Z,8.80
2022-09-26T06:10:02.073Z,8.30
2022-09-26T06:11:02.059Z,8.50
2022-09-26T06:12:02.054Z,8.70
2022-09-26T06:13:02.058Z,8.20
2022-09-26T06:14:02.058Z,8.80
2022-09-26T06:15:02.059Z,8.40
2022-09-26T06:16:02.111Z,9.00
2022-09-26T06:17:02.058Z,9.00
2022-09-26T06:18:02.062Z,8.70
2022-09-26T06:19:02.160Z,8.80
2022-09-26T06:20:02.064Z,9.10
2022-09-26T06:21:02.053Z,9.10
2022-09-26T06:22:02.055Z,8.70
2022-09-26T06:23:02.060Z,8.90
2022-09-26T06:24:02.061Z,9.00
2022-09-26T06:25:02.052Z,9.00
2022-09-26T06:26:02.055Z,8.90
2022-09-26T06:27:02.060Z,8.60
2022-09-26T06:28:02.049Z,9.10
2022-09-26T06:29:02.050Z,9.00
2022-09-26T06:30:02.051Z,8.00
2022-09-26T06:31:02.051Z,8.60
2022-09-26T06:32:02.113Z,8.50
2022-09-26T06:33:02.060Z,8.60
2022-09-26T06:34:02.054Z,8.40
2022-09-26T06:35:02.068Z,8.60
2022-09-26T06:36:02.053Z,8.60
2022-09-26T06:37:02.052Z,8.80
2022-09-26T06:38:02.051Z,9.00
2022-09-26T06:39:02.051Z,8.90
2022-09-26T06:40:02.044Z,8.70
2022-09-26T06:41:02.106Z,9.00
2022-09-26T06:42:02.047Z,8.80
2022-09-26T06:43:02.048Z,8.80
2022-09-26T06:44:02.051Z,8.70
2022-09-26T06:45:02.049Z,8.70
2022-09-26T06:46:02.070Z,8.60
2022-09-26T06:47:02.123Z,8.90
2022-09-26T06:48:02.052Z,8.20
2022-09-26T06:49:02.045Z,8.60
2022-09-26T06:50:02.045Z,9.10
2022-09-26T06:51:02.147Z,9.20
2022-09-26T06:52:02.049Z,8.40
2022-09-26T06:53:11.980Z,9.20
2022-09-26T06:54:02.041Z,9.10
2022-09-26T06:55:02.048Z,9.00
2022-09-26T06:56:02.045Z,9.40
2022-09-26T06:57:02.056Z,9.00
2022-09-26T06:58:02.055Z,9.20
2022-09-26T06:59:02.052Z,8.60
2022-09-26T07:00:02.049Z,8.80
2022-09-26T07:01:02.241Z,9.20
2022-09-26T07:02:02.219Z,8.50
2022-09-26T07:03:02.042Z,8.90
2022-09-26T07:04:02.068Z,9.20
2022-09-26T07:05:02.045Z,9.40
2022-09-26T07:06:02.037Z,8.90
2022-09-26T07:07:02.065Z,8.60
2022-09-26T07:08:02.039Z,8.90
2022-09-26T07:09:12.752Z,9.20
2022-09-26T07:10:02.035Z,8.60
2022-09-26T07:11:27.902Z,8.50
2022-09-26T07:12:16.416Z,9.00
2022-09-26T07:13:02.041Z,9.10
2022-09-26T07:14:02.336Z,9.00
2022-09-26T07:15:02.041Z,8.80
2022-09-26T07:16:02.051Z,9.10
2022-09-26T07:17:02.044Z,8.50
2022-09-26T07:18:02.040Z,8.70
2022-09-26T07:19:02.037Z,8.80
2022-09-26T07:20:02.040Z,8.60
2022-09-26T07:21:02.040Z,8.60
2022-09-26T07:22:02.040Z,9.00
2022-09-26T07:23:02.173Z,8.90
2022-09-26T07:24:02.040Z,8.50
2022-09-26T07:25:02.041Z,8.50
2022-09-26T07:26:02.038Z,8.80
2022-09-26T07:27:02.037Z,8.70
2022-09-26T07:28:02.043Z,8.40
2022-09-26T07:29:02.037Z,8.90
2022-09-26T07:30:02.035Z,8.60
2022-09-26T07:31:02.151Z,8.90
2022-09-26T07:32:02.142Z,8.60
2022-09-26T07:33:02.048Z,8.70
2022-09-26T07:34:02.042Z,8.90
2022-09-26T07:35:02.038Z,9.30
2022-09-26T07:36:05.449Z,8.90
2022-09-26T07:37:02.041Z,8.70
2022-09-26T07:38:02.044Z,9.20
2022-09-26T07:39:02.057Z,9.00
2022-09-26T07:40:02.194Z,9.00
2022-09-26T07:41:02.130Z,9.00
2022-09-26T07:42:02.040Z,9.00
2022-09-26T07:43:19.105Z,9.20
2022-09-26T07:44:53.344Z,9.30
2022-09-26T07:46:02.050Z,9.20
2022-09-26T07:47:02.116Z,8.80
2022-09-26T07:48:02.042Z,9.10
2022-09-26T07:49:02.041Z,9.00
2022-09-26T07:50:02.043Z,9.20
2022-09-26T07:51:06.944Z,9.10
2022-09-26T07:52:02.042Z,9.20
2022-09-26T07:53:02.043Z,9.80
2022-09-26T07:54:02.045Z,9.30
2022-09-26T07:55:02.061Z,9.30
2022-09-26T07:56:02.050Z,9.70
2022-09-26T07:57:02.045Z,10.10
2022-09-26T07:58:02.048Z,10.00
2022-09-26T07:59:02.041Z,10.70
2022-09-26T08:00:02.051Z,10.60
2022-09-26T08:01:02.049Z,10.50
2022-09-26T08:02:02.285Z,10.70
2022-09-26T08:03:02.112Z,10.70
2022-09-26T08:04:02.050Z,11.20
2022-09-26T08:05:02.049Z,10.60
2022-09-26T08:06:02.050Z,11.00
2022-09-26T08:07:02.057Z,10.90
2022-09-26T08:08:02.053Z,11.10
2022-09-26T08:09:02.059Z,10.50
2022-09-26T08:10:02.056Z,10.60
2022-09-26T08:11:04.201Z,10.50
2022-09-26T08:12:02.057Z,10.30
2022-09-26T08:13:02.058Z,10.50
2022-09-26T08:14:02.052Z,10.80
2022-09-26T08:15:02.055Z,11.00
2022-09-26T08:16:02.137Z,11.20
2022-09-26T08:17:02.069Z,11.30
2022-09-26T08:18:02.060Z,10.70
2022-09-26T08:19:02.059Z,10.90
2022-09-26T08:20:02.068Z,11.00
2022-09-26T08:21:02.059Z,11.10
2022-09-26T08:22:02.059Z,10.70
2022-09-26T08:23:02.062Z,10.50
2022-09-26T08:24:02.065Z,10.70
2022-09-26T08:25:02.066Z,10.20
2022-09-26T08:26:02.068Z,10.80
2022-09-26T08:27:02.094Z,11.30
2022-09-26T08:28:02.070Z,10.60
2022-09-26T08:29:02.093Z,10.60
2022-09-26T08:30:02.099Z,10.30
2022-09-26T08:31:02.158Z,10.60
2022-09-26T08:32:02.074Z,10.70
2022-09-26T08:33:02.071Z,10.70
2022-09-26T08:34:02.075Z,10.30
2022-09-26T08:35:02.092Z,10.30
2022-09-26T08:36:02.076Z,10.30
2022-09-26T08:37:02.082Z,10.50
2022-09-26T08:38:02.078Z,10.00
2022-09-26T08:39:02.079Z,10.30
2022-09-26T08:40:02.082Z,10.30
2022-09-26T08:41:02.178Z,10.10
2022-09-26T08:42:02.087Z,10.80
2022-09-26T08:43:02.215Z,10.30
2022-09-26T08:44:02.086Z,10.10
2022-09-26T08:45:02.088Z,10.80
2022-09-26T08:46:02.155Z,11.10
2022-09-26T08:47:02.245Z,10.80
2022-09-26T08:48:02.091Z,10.70
2022-09-26T08:49:02.095Z,11.60
2022-09-26T08:50:02.154Z,11.00
2022-09-26T08:51:02.103Z,11.30
2022-09-26T08:52:02.102Z,11.50
2022-09-26T08:53:02.104Z,11.10
2022-09-26T08:54:02.111Z,10.70
2022-09-26T08:55:02.120Z,11.00
2022-09-26T08:56:02.118Z,11.00
2022-09-26T08:57:02.120Z,10.90
2022-09-26T08:58:02.127Z,11.00
2022-09-26T08:59:02.145Z,10.90
2022-09-26T09:00:02.131Z,15.70
2022-09-26T09:01:02.149Z,10.90
2022-09-26T09:02:02.208Z,11.00
2022-09-26T09:03:02.329Z,10.90
2022-09-26T09:04:02.152Z,11.00
2022-09-26T09:05:02.155Z,10.70
2022-09-26T09:06:02.159Z,10.90
2022-09-26T09:07:02.160Z,10.70
2022-09-26T09:08:02.167Z,10.90
2022-09-26T09:09:02.174Z,11.10
2022-09-26T09:10:02.174Z,11.00
2022-09-26T09:11:02.179Z,12.30
2022-09-26T09:12:02.183Z,11.30
2022-09-26T09:13:02.197Z,11.10
2022-09-26T09:14:02.198Z,11.20
2022-09-26T09:15:23.964Z,11.40
2022-09-26T09:16:02.279Z,11.80
2022-09-26T09:17:02.209Z,11.80
2022-09-26T09:18:02.218Z,11.30
2022-09-26T09:19:02.222Z,11.20
2022-09-26T09:20:02.231Z,11.30
2022-09-26T09:21:02.227Z,11.30
2022-09-26T09:22:02.249Z,11.40
2022-09-26T09:23:02.247Z,11.60
2022-09-26T09:24:02.277Z,11.20
2022-09-26T09:25:02.255Z,11.20
2022-09-26T09:28:08.072Z,12.30
2022-09-26T09:29:02.279Z,10.80
2022-09-26T09:30:03.241Z,10.80
2022-09-26T09:31:02.445Z,10.90
2022-09-26T09:32:02.301Z,10.80
2022-09-26T09:33:02.301Z,11.10
2022-09-26T09:34:02.314Z,11.00
2022-09-26T09:35:02.329Z,11.10
2022-09-26T09:36:02.343Z,11.30
2022-09-26T09:37:02.330Z,11.00
2022-09-26T09:38:02.335Z,11.40
2022-09-26T09:39:02.341Z,11.00
2022-09-26T09:40:02.345Z,11.00
2022-09-26T09:41:02.498Z,11.60
2022-09-26T09:42:02.355Z,11.20
2022-09-26T09:43:02.355Z,10.70
2022-09-26T09:44:02.370Z,11.40
2022-09-26T09:45:02.377Z,11.50
2022-09-26T09:46:02.475Z,11.30
2022-09-26T09:47:02.528Z,11.50
2022-09-26T09:48:02.391Z,11.80
2022-09-26T09:49:02.400Z,11.50
2022-09-26T09:50:02.406Z,11.80
2022-09-26T09:51:02.412Z,11.30
2022-09-26T09:52:02.413Z,11.60
2022-09-26T09:53:02.420Z,11.20
2022-09-26T09:54:02.432Z,11.00
2022-09-26T09:55:02.432Z,10.80
2022-09-26T09:56:02.444Z,10.90
2022-09-26T09:57:02.449Z,10.90
2022-09-26T09:58:02.453Z,11.40
2022-09-26T09:59:02.461Z,10.90
2022-09-26T10:00:02.595Z,11.00
2022-09-26T10:01:02.467Z,11.30
2022-09-26T10:02:02.477Z,11.40
2022-09-26T10:03:02.624Z,11.60
2022-09-26T10:04:02.490Z,11.40
2022-09-26T10:05:02.501Z,11.30
2022-09-26T10:06:02.496Z,11.70
2022-09-26T10:07:02.503Z,11.90
2022-09-26T10:08:02.508Z,12.00
2022-09-26T10:09:35.975Z,12.00
2022-09-26T10:10:02.518Z,12.20
2022-09-26T10:11:02.520Z,12.00
2022-09-26T10:12:02.529Z,12.00
2022-09-26T10:13:02.531Z,12.20
2022-09-26T10:14:02.543Z,11.90
2022-09-26T10:15:02.537Z,11.80
2022-09-26T10:16:02.603Z,12.00
2022-09-26T10:17:02.544Z,11.50
2022-09-26T10:18:23.438Z,11.90
2022-09-26T10:19:03.822Z,11.90
2022-09-26T10:20:02.559Z,11.70
2022-09-26T10:21:02.560Z,12.00
2022-09-26T10:22:02.573Z,12.10
2022-09-26T10:23:02.568Z,11.90
2022-09-26T10:24:02.572Z,11.80
2022-09-26T10:25:02.576Z,11.90
2022-09-26T10:26:02.583Z,11.90
2022-09-26T10:27:02.582Z,12.10
2022-09-26T10:28:02.591Z,12.00
2022-09-26T10:29:02.591Z,11.70
2022-09-26T10:30:02.603Z,11.90
2022-09-26T10:31:02.670Z,11.80
2022-09-26T10:32:02.610Z,11.20
2022-09-26T10:33:02.618Z,11.40
2022-09-26T10:34:02.616Z,11.10
2022-09-26T10:35:02.645Z,11.30
2022-09-26T10:36:02.641Z,11.40
2022-09-26T10:37:02.628Z,11.50
2022-09-26T10:38:02.635Z,11.40
2022-09-26T10:39:02.640Z,11.30
2022-09-26T10:40:02.649Z,10.90
2022-09-26T10:41:02.687Z,11.20
2022-09-26T10:42:02.660Z,11.40
2022-09-26T10:43:02.663Z,11.20
2022-09-26T10:44:02.668Z,11.30
2022-09-26T10:45:02.672Z,11.60
2022-09-26T10:46:02.783Z,11.10
2022-09-26T10:47:02.697Z,10.90
2022-09-26T10:48:02.699Z,10.80
2022-09-26T10:49:02.701Z,10.90
2022-09-26T10:50:02.710Z,10.80
2022-09-26T10:51:02.745Z,11.50
2022-09-26T10:52:02.717Z,10.90
2022-09-26T10:53:02.730Z,11.20
2022-09-26T10:54:02.733Z,11.80
2022-09-26T10:55:02.739Z,11.10
2022-09-26T10:56:02.747Z,11.70
2022-09-26T10:57:02.750Z,11.70
2022-09-26T10:58:02.763Z,12.00
2022-09-26T10:59:02.765Z,12.50
2022-09-26T11:00:02.771Z,12.10
2022-09-26T11:01:02.783Z,12.20
2022-09-26T11:02:02.858Z,12.30
2022-09-26T11:03:02.789Z,12.40
2022-09-26T11:04:02.909Z,12.10
2022-09-26T11:05:02.803Z,12.10
2022-09-26T11:06:02.814Z,11.90
2022-09-26T11:07:02.836Z,12.10
2022-09-26T11:08:02.823Z,12.00
2022-09-26T11:09:02.819Z,12.20
2022-09-26T11:10:02.832Z,12.30
2022-09-26T11:11:02.857Z,12.40
2022-09-26T11:12:02.838Z,12.50
2022-09-26T11:13:02.846Z,12.20
2022-09-26T11:14:02.849Z,12.20
2022-09-26T11:15:02.858Z,12.30
2022-09-26T11:16:02.939Z,12.10
2022-09-26T11:17:02.866Z,11.90
2022-09-26T11:18:02.866Z,11.80
2022-09-26T11:19:02.876Z,12.00
2022-09-26T11:20:02.885Z,12.00
2022-09-26T11:21:02.876Z,12.30
2022-09-26T11:22:07.389Z,11.90
2022-09-26T11:23:02.917Z,12.10
2022-09-26T11:24:02.906Z,12.00
2022-09-26T11:26:46.626Z,12.30
2022-09-26T11:28:19.844Z,12.10
2022-09-26T11:28:46.636Z,12.00
2022-09-26T11:30:19.846Z,12.60
2022-09-26T11:32:30.370Z,12.50
2022-09-26T11:34:03.581Z,13.50
2022-09-26T11:34:30.374Z,11.50
2022-09-26T11:35:49.583Z,12.30
2022-09-26T11:36:30.383Z,11.80
2022-09-26T11:37:30.383Z,12.10
2022-09-26T11:38:30.417Z,11.70
2022-09-26T11:39:30.391Z,12.20
2022-09-26T11:40:30.476Z,12.20
2022-09-26T11:41:30.397Z,12.70
2022-09-26T11:42:30.397Z,12.40
2022-09-26T11:43:30.401Z,12.20
2022-09-26T11:44:30.406Z,12.10
2022-09-26T11:45:33.667Z,12.30
2022-09-26T11:46:30.457Z,12.50
2022-09-26T11:47:30.411Z,12.20
2022-09-26T11:48:30.416Z,12.30
2022-09-26T11:49:30.420Z,12.30
2022-09-26T11:50:30.420Z,12.70
2022-09-26T11:51:30.419Z,12.80
2022-09-26T11:52:30.439Z,12.70
2022-09-26T11:53:30.422Z,12.60
2022-09-26T11:54:30.449Z,12.70
2022-09-26T11:55:30.433Z,12.70
2022-09-26T11:56:30.445Z,12.80
2022-09-26T11:57:30.436Z,12.90
2022-09-26T11:58:30.437Z,13.20
2022-09-26T11:59:30.436Z,12.90
2022-09-26T12:00:30.440Z,12.70
2022-09-26T12:01:30.439Z,12.80
2022-09-26T12:02:30.598Z,12.80
2022-09-26T12:03:30.653Z,12.50
2022-09-26T12:04:30.445Z,12.70
2022-09-26T12:05:30.449Z,12.60
2022-09-26T12:06:30.448Z,12.80
2022-09-26T12:07:30.450Z,14.20
2022-09-26T12:08:30.456Z,13.00
2022-09-26T12:09:30.454Z,12.90
2022-09-26T12:10:30.484Z,12.90
2022-09-26T12:11:30.456Z,13.20
2022-09-26T12:12:30.462Z,12.40
2022-09-26T12:13:30.458Z,12.90
2022-09-26T12:14:30.459Z,12.70
2022-09-26T12:15:30.466Z,13.10
2022-09-26T12:16:30.642Z,12.70
2022-09-26T12:17:30.469Z,12.50
2022-09-26T12:18:30.465Z,13.40
2022-09-26T12:19:30.465Z,12.90
2022-09-26T12:20:30.468Z,12.80
2022-09-26T12:21:30.466Z,12.90
2022-09-26T12:22:30.475Z,12.90
2022-09-26T12:23:30.473Z,13.10
2022-09-26T12:24:30.476Z,13.30
2022-09-26T12:25:30.478Z,12.80
2022-09-26T12:26:30.496Z,12.80
2022-09-26T12:27:30.479Z,12.90
2022-09-26T12:28:30.479Z,12.50
2022-09-26T12:29:30.478Z,12.60
2022-09-26T12:30:30.491Z,12.80
2022-09-26T12:31:30.570Z,13.10
2022-09-26T12:32:30.488Z,12.70
2022-09-26T12:33:30.490Z,12.70
2022-09-26T12:34:30.487Z,12.60
2022-09-26T12:35:30.484Z,13.30
2022-09-26T12:36:30.494Z,12.90
2022-09-26T12:37:30.500Z,12.60
2022-09-26T12:38:30.490Z,12.80
2022-09-26T12:39:30.488Z,12.50
2022-09-26T12:40:30.568Z,12.70
2022-09-26T12:41:30.496Z,12.70
2022-09-26T12:42:30.518Z,12.60
2022-09-26T12:43:30.503Z,12.90
2022-09-26T12:44:30.499Z,13.10
2022-09-26T12:45:30.494Z,12.70
2022-09-26T12:46:30.572Z,12.40
2022-09-26T12:47:30.510Z,12.30
2022-09-26T12:48:30.508Z,12.70
2022-09-26T12:49:30.513Z,12.40
2022-09-26T12:50:30.503Z,12.90
2022-09-26T12:51:30.509Z,12.60
2022-09-26T12:52:30.528Z,12.70
2022-09-26T12:53:30.509Z,12.20
2022-09-26T12:54:30.509Z,12.80
2022-09-26T12:55:30.508Z,12.60
2022-09-26T12:56:30.511Z,13.60
2022-09-26T12:57:30.515Z,13.60
2022-09-26T12:58:30.535Z,13.30
2022-09-26T12:59:30.512Z,13.00
2022-09-26T13:00:30.516Z,13.00
2022-09-26T13:01:30.577Z,13.30
2022-09-26T13:02:30.627Z,12.70
2022-09-26T13:03:30.521Z,13.10
2022-09-26T13:04:30.529Z,12.90
2022-09-26T13:05:30.520Z,12.40
2022-09-26T13:06:30.534Z,12.80
2022-09-26T13:07:30.523Z,13.20